sensor_id;sensor_type;location;lat;lon;timestamp;P1;durP1;ratioP1;P2;durP2;ratioP2
69502;SDS011;56704;54.242;12.442;2023-05-10T00:00:19;5.75;;;2.63;;
69502;SDS011;56704;54.242;12.442;2023-05-10T00:02:47;7.60;;;2.33;;
69502;SDS011;56704;54.242;12.442;2023-05-10T00:05:14;6.53;;;2.63;;
69502;SDS011;56704;54.242;12.442;2023-05-10T00:07:41;5.60;;;2.30;;
69502;SDS011;56704;54.242;12.442;2023-05-10T00:10:09;7.15;;;2.47;;
69502;SDS011;56704;54.242;12.442;2023-05-10T00:12:38;8.57;;;2.85;;
69502;SDS011;56704;54.242;12.442;2023-05-10T00:15:05;5.77;;;2.40;;
69502;SDS011;56704;54.242;12.442;2023-05-10T00:17:32;5.75;;;1.80;;
69502;SDS011;56704;54.242;12.442;2023-05-10T00:19:59;4.95;;;1.95;;
69502;SDS011;56704;54.242;12.442;2023-05-10T00:22:26;6.32;;;2.38;;
69502;SDS011;56704;54.242;12.442;2023-05-10T00:24:53;6.80;;;2.47;;
69502;SDS011;56704;54.242;12.442;2023-05-10T00:27:19;6.07;;;2.70;;
69502;SDS011;56704;54.242;12.442;2023-05-10T00:29:47;6.95;;;2.42;;
69502;SDS011;56704;54.242;12.442;2023-05-10T00:32:14;5.88;;;2.60;;
69502;SDS011;56704;54.242;12.442;2023-05-10T00:34:41;6.75;;;2.65;;
69502;SDS011;56704;54.242;12.442;2023-05-10T00:37:08;6.03;;;2.30;;
69502;SDS011;56704;54.242;12.442;2023-05-10T00:39:34;6.87;;;3.10;;
69502;SDS011;56704;54.242;12.442;2023-05-10T00:42:01;7.72;;;2.85;;
69502;SDS011;56704;54.242;12.442;2023-05-10T00:44:29;6.18;;;2.42;;
69502;SDS011;56704;54.242;12.442;2023-05-10T00:46:57;9.85;;;3.00;;
69502;SDS011;56704;54.242;12.442;2023-05-10T00:49:25;7.25;;;3.20;;
69502;SDS011;56704;54.242;12.442;2023-05-10T00:51:52;8.60;;;2.30;;
69502;SDS011;56704;54.242;12.442;2023-05-10T00:54:19;7.68;;;2.78;;
69502;SDS011;56704;54.242;12.442;2023-05-10T00:56:46;6.82;;;2.75;;
69502;SDS011;56704;54.242;12.442;2023-05-10T00:59:14;6.93;;;2.53;;
69502;SDS011;56704;54.242;12.442;2023-05-10T01:01:41;6.85;;;2.67;;
69502;SDS011;56704;54.242;12.442;2023-05-10T01:04:10;6.03;;;2.80;;
69502;SDS011;56704;54.242;12.442;2023-05-10T01:06:37;6.20;;;2.83;;
69502;SDS011;56704;54.242;12.442;2023-05-10T01:09:04;9.27;;;3.10;;
69502;SDS011;56704;54.242;12.442;2023-05-10T01:11:31;6.70;;;2.63;;
69502;SDS011;56704;54.242;12.442;2023-05-10T01:13:58;6.60;;;3.10;;
69502;SDS011;56704;54.242;12.442;2023-05-10T01:16:25;7.90;;;2.93;;
69502;SDS011;56704;54.242;12.442;2023-05-10T01:18:52;6.93;;;2.80;;
69502;SDS011;56704;54.242;12.442;2023-05-10T01:21:23;6.30;;;2.80;;
69502;SDS011;56704;54.242;12.442;2023-05-10T01:24:08;5.63;;;2.83;;
69502;SDS011;56704;54.242;12.442;2023-05-10T01:30:35;7.23;;;3.70;;
69502;SDS011;56704;54.242;12.442;2023-05-10T01:33:22;7.50;;;3.00;;
69502;SDS011;56704;54.242;12.442;2023-05-10T01:35:55;6.80;;;2.88;;
69502;SDS011;56704;54.242;12.442;2023-05-10T01:38:29;7.45;;;2.83;;
69502;SDS011;56704;54.242;12.442;2023-05-10T01:41:13;5.68;;;2.42;;
69502;SDS011;56704;54.242;12.442;2023-05-10T01:43:44;6.50;;;2.87;;
69502;SDS011;56704;54.242;12.442;2023-05-10T01:46:20;7.40;;;2.90;;
69502;SDS011;56704;54.242;12.442;2023-05-10T01:48:55;10.43;;;2.92;;
69502;SDS011;56704;54.242;12.442;2023-05-10T01:51:24;6.93;;;2.58;;
69502;SDS011;56704;54.242;12.442;2023-05-10T01:53:54;6.82;;;2.90;;
69502;SDS011;56704;54.242;12.442;2023-05-10T01:56:26;6.03;;;2.80;;
69502;SDS011;56704;54.242;12.442;2023-05-10T01:58:55;6.07;;;2.83;;
69502;SDS011;56704;54.242;12.442;2023-05-10T02:01:23;8.02;;;3.10;;
69502;SDS011;56704;54.242;12.442;2023-05-10T02:03:51;7.28;;;3.15;;
69502;SDS011;56704;54.242;12.442;2023-05-10T02:06:21;9.13;;;2.80;;
69502;SDS011;56704;54.242;12.442;2023-05-10T02:08:49;8.17;;;3.40;;
69502;SDS011;56704;54.242;12.442;2023-05-10T02:11:18;7.60;;;3.22;;
69502;SDS011;56704;54.242;12.442;2023-05-10T02:13:47;8.20;;;3.42;;
69502;SDS011;56704;54.242;12.442;2023-05-10T02:16:15;6.57;;;3.20;;
69502;SDS011;56704;54.242;12.442;2023-05-10T02:18:44;9.10;;;3.67;;
69502;SDS011;56704;54.242;12.442;2023-05-10T02:21:11;8.43;;;2.77;;
69502;SDS011;56704;54.242;12.442;2023-05-10T02:23:41;7.75;;;3.10;;
69502;SDS011;56704;54.242;12.442;2023-05-10T02:26:09;7.00;;;3.42;;
69502;SDS011;56704;54.242;12.442;2023-05-10T02:28:38;7.20;;;3.20;;
69502;SDS011;56704;54.242;12.442;2023-05-10T02:31:06;6.15;;;3.10;;
69502;SDS011;56704;54.242;12.442;2023-05-10T02:33:34;10.67;;;2.70;;
69502;SDS011;56704;54.242;12.442;2023-05-10T02:36:02;6.53;;;2.88;;
69502;SDS011;56704;54.242;12.442;2023-05-10T02:38:29;6.43;;;2.80;;
69502;SDS011;56704;54.242;12.442;2023-05-10T02:41:00;6.88;;;3.10;;
69502;SDS011;56704;54.242;12.442;2023-05-10T02:43:28;7.75;;;3.53;;
69502;SDS011;56704;54.242;12.442;2023-05-10T02:45:58;7.97;;;3.27;;
69502;SDS011;56704;54.242;12.442;2023-05-10T02:48:25;9.60;;;3.90;;
69502;SDS011;56704;54.242;12.442;2023-05-10T02:50:52;9.45;;;3.58;;
69502;SDS011;56704;54.242;12.442;2023-05-10T02:53:22;7.30;;;3.17;;
69502;SDS011;56704;54.242;12.442;2023-05-10T02:55:53;6.50;;;2.75;;
69502;SDS011;56704;54.242;12.442;2023-05-10T02:58:27;6.03;;;2.27;;
69502;SDS011;56704;54.242;12.442;2023-05-10T03:00:53;7.78;;;2.42;;
69502;SDS011;56704;54.242;12.442;2023-05-10T03:03:20;6.40;;;2.92;;
69502;SDS011;56704;54.242;12.442;2023-05-10T03:05:47;7.13;;;3.28;;
69502;SDS011;56704;54.242;12.442;2023-05-10T03:08:13;8.35;;;3.33;;
69502;SDS011;56704;54.242;12.442;2023-05-10T03:10:41;7.90;;;3.00;;
69502;SDS011;56704;54.242;12.442;2023-05-10T03:13:21;7.95;;;3.25;;
69502;SDS011;56704;54.242;12.442;2023-05-10T03:15:57;7.95;;;3.83;;
69502;SDS011;56704;54.242;12.442;2023-05-10T03:18:34;8.73;;;3.35;;
69502;SDS011;56704;54.242;12.442;2023-05-10T03:21:07;7.82;;;3.67;;
69502;SDS011;56704;54.242;12.442;2023-05-10T03:23:39;7.20;;;3.40;;
69502;SDS011;56704;54.242;12.442;2023-05-10T03:26:08;8.18;;;3.50;;
69502;SDS011;56704;54.242;12.442;2023-05-10T03:28:35;7.55;;;3.40;;
69502;SDS011;56704;54.242;12.442;2023-05-10T03:31:04;7.95;;;2.60;;
69502;SDS011;56704;54.242;12.442;2023-05-10T03:33:31;9.32;;;4.05;;
69502;SDS011;56704;54.242;12.442;2023-05-10T03:35:58;8.97;;;3.83;;
69502;SDS011;56704;54.242;12.442;2023-05-10T03:38:25;8.05;;;3.80;;
69502;SDS011;56704;54.242;12.442;2023-05-10T03:40:51;7.97;;;3.40;;
69502;SDS011;56704;54.242;12.442;2023-05-10T03:43:18;8.85;;;3.40;;
69502;SDS011;56704;54.242;12.442;2023-05-10T03:45:44;8.20;;;2.95;;
69502;SDS011;56704;54.242;12.442;2023-05-10T03:48:13;8.93;;;3.40;;
69502;SDS011;56704;54.242;12.442;2023-05-10T03:50:39;7.82;;;3.80;;
69502;SDS011;56704;54.242;12.442;2023-05-10T03:53:06;6.22;;;2.60;;
69502;SDS011;56704;54.242;12.442;2023-05-10T03:55:33;8.23;;;3.92;;
69502;SDS011;56704;54.242;12.442;2023-05-10T03:58:01;7.93;;;3.90;;
69502;SDS011;56704;54.242;12.442;2023-05-10T04:00:28;6.40;;;3.27;;
69502;SDS011;56704;54.242;12.442;2023-05-10T04:02:55;9.02;;;3.20;;
69502;SDS011;56704;54.242;12.442;2023-05-10T04:05:23;7.32;;;3.80;;
69502;SDS011;56704;54.242;12.442;2023-05-10T04:07:49;8.73;;;3.78;;
69502;SDS011;56704;54.242;12.442;2023-05-10T04:10:16;9.23;;;3.90;;
69502;SDS011;56704;54.242;12.442;2023-05-10T04:12:43;5.93;;;3.10;;
69502;SDS011;56704;54.242;12.442;2023-05-10T04:15:09;6.22;;;2.17;;
69502;SDS011;56704;54.242;12.442;2023-05-10T04:17:36;8.63;;;3.80;;
69502;SDS011;56704;54.242;12.442;2023-05-10T04:20:03;7.97;;;3.50;;
69502;SDS011;56704;54.242;12.442;2023-05-10T04:22:33;7.03;;;3.25;;
69502;SDS011;56704;54.242;12.442;2023-05-10T04:24:59;6.97;;;3.37;;
69502;SDS011;56704;54.242;12.442;2023-05-10T04:27:26;7.28;;;3.30;;
69502;SDS011;56704;54.242;12.442;2023-05-10T04:29:53;6.78;;;3.50;;
69502;SDS011;56704;54.242;12.442;2023-05-10T04:32:19;8.70;;;3.30;;
69502;SDS011;56704;54.242;12.442;2023-05-10T04:34:46;6.65;;;3.55;;
69502;SDS011;56704;54.242;12.442;2023-05-10T04:37:13;7.20;;;3.30;;
69502;SDS011;56704;54.242;12.442;2023-05-10T04:39:41;8.15;;;3.45;;
69502;SDS011;56704;54.242;12.442;2023-05-10T04:42:07;7.63;;;3.42;;
69502;SDS011;56704;54.242;12.442;2023-05-10T04:44:34;6.20;;;3.00;;
69502;SDS011;56704;54.242;12.442;2023-05-10T04:47:01;8.75;;;3.47;;
69502;SDS011;56704;54.242;12.442;2023-05-10T04:49:28;7.73;;;3.50;;
69502;SDS011;56704;54.242;12.442;2023-05-10T04:51:56;8.65;;;3.40;;
69502;SDS011;56704;54.242;12.442;2023-05-10T04:54:22;8.85;;;3.70;;
69502;SDS011;56704;54.242;12.442;2023-05-10T04:56:50;10.77;;;3.60;;
69502;SDS011;56704;54.242;12.442;2023-05-10T04:59:17;7.68;;;4.00;;
69502;SDS011;56704;54.242;12.442;2023-05-10T05:01:44;9.50;;;3.90;;
69502;SDS011;56704;54.242;12.442;2023-05-10T05:04:10;6.00;;;2.45;;
69502;SDS011;56704;54.242;12.442;2023-05-10T05:06:37;6.80;;;3.47;;
69502;SDS011;56704;54.242;12.442;2023-05-10T05:09:03;8.30;;;3.22;;
69502;SDS011;56704;54.242;12.442;2023-05-10T05:11:30;7.97;;;3.83;;
69502;SDS011;56704;54.242;12.442;2023-05-10T05:13:58;9.17;;;3.97;;
69502;SDS011;56704;54.242;12.442;2023-05-10T05:16:25;6.95;;;3.30;;
69502;SDS011;56704;54.242;12.442;2023-05-10T05:18:51;7.15;;;3.88;;
69502;SDS011;56704;54.242;12.442;2023-05-10T05:21:19;9.25;;;3.92;;
69502;SDS011;56704;54.242;12.442;2023-05-10T05:23:46;6.93;;;3.30;;
69502;SDS011;56704;54.242;12.442;2023-05-10T05:26:13;8.20;;;3.50;;
69502;SDS011;56704;54.242;12.442;2023-05-10T05:28:39;7.43;;;3.38;;
69502;SDS011;56704;54.242;12.442;2023-05-10T05:31:07;7.38;;;2.92;;
69502;SDS011;56704;54.242;12.442;2023-05-10T05:33:34;7.65;;;3.42;;
69502;SDS011;56704;54.242;12.442;2023-05-10T05:36:01;7.00;;;3.45;;
69502;SDS011;56704;54.242;12.442;2023-05-10T05:38:28;6.13;;;3.00;;
69502;SDS011;56704;54.242;12.442;2023-05-10T05:40:54;6.85;;;2.97;;
69502;SDS011;56704;54.242;12.442;2023-05-10T05:43:21;11.40;;;3.88;;
69502;SDS011;56704;54.242;12.442;2023-05-10T05:45:48;6.60;;;3.88;;
69502;SDS011;56704;54.242;12.442;2023-05-10T05:48:16;9.77;;;3.70;;
69502;SDS011;56704;54.242;12.442;2023-05-10T05:50:43;8.97;;;3.77;;
69502;SDS011;56704;54.242;12.442;2023-05-10T05:53:10;7.03;;;2.90;;
69502;SDS011;56704;54.242;12.442;2023-05-10T05:55:37;8.30;;;3.70;;
69502;SDS011;56704;54.242;12.442;2023-05-10T05:58:03;7.47;;;3.55;;
69502;SDS011;56704;54.242;12.442;2023-05-10T06:00:30;8.70;;;3.30;;
69502;SDS011;56704;54.242;12.442;2023-05-10T06:02:56;8.37;;;3.60;;
69502;SDS011;56704;54.242;12.442;2023-05-10T06:05:24;7.15;;;2.85;;
69502;SDS011;56704;54.242;12.442;2023-05-10T06:07:51;11.95;;;3.13;;
69502;SDS011;56704;54.242;12.442;2023-05-10T06:10:17;8.07;;;3.22;;
69502;SDS011;56704;54.242;12.442;2023-05-10T06:12:44;7.85;;;3.85;;
69502;SDS011;56704;54.242;12.442;2023-05-10T06:15:11;6.73;;;3.03;;
69502;SDS011;56704;54.242;12.442;2023-05-10T06:17:38;6.25;;;3.00;;
69502;SDS011;56704;54.242;12.442;2023-05-10T06:20:05;7.95;;;4.22;;
69502;SDS011;56704;54.242;12.442;2023-05-10T06:22:34;6.22;;;3.08;;
69502;SDS011;56704;54.242;12.442;2023-05-10T06:25:01;6.43;;;3.28;;
69502;SDS011;56704;54.242;12.442;2023-05-10T06:27:28;8.60;;;3.30;;
69502;SDS011;56704;54.242;12.442;2023-05-10T06:29:54;6.88;;;3.58;;
69502;SDS011;56704;54.242;12.442;2023-05-10T06:32:21;7.13;;;3.50;;
69502;SDS011;56704;54.242;12.442;2023-05-10T06:34:47;7.20;;;3.42;;
69502;SDS011;56704;54.242;12.442;2023-05-10T06:37:14;6.90;;;3.58;;
69502;SDS011;56704;54.242;12.442;2023-05-10T06:39:42;6.83;;;2.97;;
69502;SDS011;56704;54.242;12.442;2023-05-10T06:42:08;6.20;;;3.10;;
69502;SDS011;56704;54.242;12.442;2023-05-10T06:44:35;6.57;;;3.22;;
69502;SDS011;56704;54.242;12.442;2023-05-10T06:47:02;10.73;;;4.82;;
69502;SDS011;56704;54.242;12.442;2023-05-10T06:49:28;4.93;;;2.42;;
69502;SDS011;56704;54.242;12.442;2023-05-10T06:51:55;5.43;;;2.60;;
69502;SDS011;56704;54.242;12.442;2023-05-10T06:54:22;6.80;;;3.10;;
69502;SDS011;56704;54.242;12.442;2023-05-10T06:56:50;7.03;;;3.30;;
69502;SDS011;56704;54.242;12.442;2023-05-10T06:59:17;7.70;;;3.05;;
69502;SDS011;56704;54.242;12.442;2023-05-10T07:01:44;8.10;;;3.38;;
69502;SDS011;56704;54.242;12.442;2023-05-10T07:04:11;8.83;;;3.23;;
69502;SDS011;56704;54.242;12.442;2023-05-10T07:06:38;5.93;;;3.40;;
69502;SDS011;56704;54.242;12.442;2023-05-10T07:09:04;5.82;;;2.90;;
69502;SDS011;56704;54.242;12.442;2023-05-10T07:11:32;6.50;;;2.95;;
69502;SDS011;56704;54.242;12.442;2023-05-10T07:14:00;6.65;;;3.30;;
69502;SDS011;56704;54.242;12.442;2023-05-10T07:16:27;6.03;;;2.90;;
69502;SDS011;56704;54.242;12.442;2023-05-10T07:18:54;5.78;;;2.63;;
69502;SDS011;56704;54.242;12.442;2023-05-10T07:21:20;5.75;;;2.72;;
69502;SDS011;56704;54.242;12.442;2023-05-10T07:23:48;6.68;;;3.25;;
69502;SDS011;56704;54.242;12.442;2023-05-10T07:26:15;6.63;;;2.90;;
69502;SDS011;56704;54.242;12.442;2023-05-10T07:28:42;7.23;;;3.27;;
69502;SDS011;56704;54.242;12.442;2023-05-10T07:31:10;5.57;;;3.10;;
69502;SDS011;56704;54.242;12.442;2023-05-10T07:33:36;5.57;;;2.85;;
69502;SDS011;56704;54.242;12.442;2023-05-10T07:36:03;8.40;;;3.15;;
69502;SDS011;56704;54.242;12.442;2023-05-10T07:38:30;8.30;;;3.33;;
69502;SDS011;56704;54.242;12.442;2023-05-10T07:40:56;7.27;;;2.80;;
69502;SDS011;56704;54.242;12.442;2023-05-10T07:43:23;5.97;;;3.10;;
69502;SDS011;56704;54.242;12.442;2023-05-10T07:45:49;6.25;;;3.25;;
69502;SDS011;56704;54.242;12.442;2023-05-10T07:48:17;5.93;;;3.47;;
69502;SDS011;56704;54.242;12.442;2023-05-10T07:50:45;6.03;;;2.80;;
69502;SDS011;56704;54.242;12.442;2023-05-10T07:53:11;7.40;;;3.53;;
69502;SDS011;56704;54.242;12.442;2023-05-10T07:55:38;5.43;;;2.58;;
69502;SDS011;56704;54.242;12.442;2023-05-10T07:58:05;7.20;;;3.10;;
69502;SDS011;56704;54.242;12.442;2023-05-10T08:00:32;5.47;;;3.05;;
69502;SDS011;56704;54.242;12.442;2023-05-10T08:02:58;5.65;;;3.20;;
69502;SDS011;56704;54.242;12.442;2023-05-10T08:05:26;6.03;;;2.67;;
69502;SDS011;56704;54.242;12.442;2023-05-10T08:07:53;6.93;;;3.25;;
69502;SDS011;56704;54.242;12.442;2023-05-10T08:10:19;5.95;;;3.13;;
69502;SDS011;56704;54.242;12.442;2023-05-10T08:12:46;6.15;;;2.80;;
69502;SDS011;56704;54.242;12.442;2023-05-10T08:15:13;8.25;;;2.78;;
69502;SDS011;56704;54.242;12.442;2023-05-10T08:17:39;6.00;;;2.70;;
69502;SDS011;56704;54.242;12.442;2023-05-10T08:20:08;5.20;;;2.30;;
69502;SDS011;56704;54.242;12.442;2023-05-10T08:22:36;5.28;;;2.75;;
69502;SDS011;56704;54.242;12.442;2023-05-10T08:25:03;4.95;;;2.38;;
69502;SDS011;56704;54.242;12.442;2023-05-10T08:27:30;5.05;;;2.50;;
69502;SDS011;56704;54.242;12.442;2023-05-10T08:29:57;6.10;;;2.30;;
69502;SDS011;56704;54.242;12.442;2023-05-10T08:32:24;4.32;;;2.22;;
69502;SDS011;56704;54.242;12.442;2023-05-10T08:34:50;7.72;;;2.55;;
69502;SDS011;56704;54.242;12.442;2023-05-10T08:37:17;6.22;;;2.65;;
69502;SDS011;56704;54.242;12.442;2023-05-10T08:39:45;5.85;;;2.85;;
69502;SDS011;56704;54.242;12.442;2023-05-10T08:42:12;7.47;;;2.67;;
69502;SDS011;56704;54.242;12.442;2023-05-10T08:44:45;4.90;;;2.15;;
69502;SDS011;56704;54.242;12.442;2023-05-10T08:47:15;5.35;;;2.40;;
69502;SDS011;56704;54.242;12.442;2023-05-10T08:49:44;5.00;;;2.47;;
69502;SDS011;56704;54.242;12.442;2023-05-10T08:52:14;6.72;;;2.60;;
69502;SDS011;56704;54.242;12.442;2023-05-10T08:54:42;4.70;;;2.27;;
69502;SDS011;56704;54.242;12.442;2023-05-10T08:57:10;4.60;;;1.90;;
69502;SDS011;56704;54.242;12.442;2023-05-10T08:59:37;5.20;;;2.33;;
69502;SDS011;56704;54.242;12.442;2023-05-10T09:02:04;6.53;;;2.22;;
69502;SDS011;56704;54.242;12.442;2023-05-10T09:04:31;3.83;;;1.75;;
69502;SDS011;56704;54.242;12.442;2023-05-10T09:06:58;4.60;;;2.10;;
69502;SDS011;56704;54.242;12.442;2023-05-10T09:09:25;6.10;;;2.80;;
69502;SDS011;56704;54.242;12.442;2023-05-10T09:11:51;6.28;;;2.97;;
69502;SDS011;56704;54.242;12.442;2023-05-10T09:14:21;6.20;;;2.95;;
69502;SDS011;56704;54.242;12.442;2023-05-10T09:16:50;4.85;;;2.55;;
69502;SDS011;56704;54.242;12.442;2023-05-10T09:19:17;6.33;;;2.53;;
69502;SDS011;56704;54.242;12.442;2023-05-10T09:21:43;5.40;;;2.30;;
69502;SDS011;56704;54.242;12.442;2023-05-10T09:24:10;6.55;;;3.08;;
69502;SDS011;56704;54.242;12.442;2023-05-10T09:26:43;4.30;;;2.30;;
69502;SDS011;56704;54.242;12.442;2023-05-10T09:29:13;4.53;;;2.47;;
69502;SDS011;56704;54.242;12.442;2023-05-10T09:31:45;4.67;;;2.30;;
69502;SDS011;56704;54.242;12.442;2023-05-10T09:34:16;4.70;;;2.20;;
69502;SDS011;56704;54.242;12.442;2023-05-10T09:36:54;5.32;;;2.70;;
69502;SDS011;56704;54.242;12.442;2023-05-10T09:39:28;6.28;;;2.03;;
69502;SDS011;56704;54.242;12.442;2023-05-10T09:41:56;6.40;;;2.80;;
69502;SDS011;56704;54.242;12.442;2023-05-10T09:44:25;5.13;;;2.03;;
69502;SDS011;56704;54.242;12.442;2023-05-10T09:46:53;8.40;;;2.42;;
69502;SDS011;56704;54.242;12.442;2023-05-10T09:49:20;8.27;;;2.65;;
69502;SDS011;56704;54.242;12.442;2023-05-10T09:51:46;6.35;;;2.60;;
69502;SDS011;56704;54.242;12.442;2023-05-10T09:54:14;6.18;;;2.55;;
69502;SDS011;56704;54.242;12.442;2023-05-10T09:56:42;4.57;;;2.50;;
69502;SDS011;56704;54.242;12.442;2023-05-10T09:59:09;5.75;;;2.65;;
69502;SDS011;56704;54.242;12.442;2023-05-10T10:01:37;4.43;;;1.98;;
69502;SDS011;56704;54.242;12.442;2023-05-10T10:04:06;5.95;;;2.75;;
69502;SDS011;56704;54.242;12.442;2023-05-10T10:06:36;5.00;;;2.72;;
69502;SDS011;56704;54.242;12.442;2023-05-10T10:09:04;5.67;;;2.20;;
69502;SDS011;56704;54.242;12.442;2023-05-10T10:11:31;6.05;;;2.50;;
69502;SDS011;56704;54.242;12.442;2023-05-10T10:14:00;4.78;;;2.65;;
69502;SDS011;56704;54.242;12.442;2023-05-10T10:16:27;5.78;;;2.00;;
69502;SDS011;56704;54.242;12.442;2023-05-10T10:18:55;4.68;;;1.90;;
69502;SDS011;56704;54.242;12.442;2023-05-10T10:21:23;5.87;;;2.30;;
69502;SDS011;56704;54.242;12.442;2023-05-10T10:23:50;5.75;;;3.08;;
69502;SDS011;56704;54.242;12.442;2023-05-10T10:26:18;4.55;;;2.38;;
69502;SDS011;56704;54.242;12.442;2023-05-10T10:28:48;4.82;;;2.63;;
69502;SDS011;56704;54.242;12.442;2023-05-10T10:31:25;4.90;;;2.38;;
69502;SDS011;56704;54.242;12.442;2023-05-10T10:34:03;5.10;;;2.70;;
69502;SDS011;56704;54.242;12.442;2023-05-10T10:36:34;7.00;;;2.83;;
69502;SDS011;56704;54.242;12.442;2023-05-10T10:39:08;4.78;;;2.65;;
69502;SDS011;56704;54.242;12.442;2023-05-10T10:41:37;4.35;;;1.95;;
69502;SDS011;56704;54.242;12.442;2023-05-10T10:46:58;4.90;;;2.60;;
69502;SDS011;56704;54.242;12.442;2023-05-10T10:49:26;4.75;;;2.40;;
69502;SDS011;56704;54.242;12.442;2023-05-10T10:54:53;5.15;;;2.83;;
69502;SDS011;56704;54.242;12.442;2023-05-10T10:57:25;5.00;;;2.50;;
69502;SDS011;56704;54.242;12.442;2023-05-10T10:59:54;5.37;;;2.43;;
69502;SDS011;56704;54.242;12.442;2023-05-10T11:03:03;5.75;;;2.70;;
69502;SDS011;56704;54.242;12.442;2023-05-10T11:05:35;4.68;;;2.08;;
69502;SDS011;56704;54.242;12.442;2023-05-10T11:08:08;5.00;;;2.58;;
69502;SDS011;56704;54.242;12.442;2023-05-10T11:10:37;4.75;;;2.45;;
69502;SDS011;56704;54.242;12.442;2023-05-10T11:13:04;4.60;;;2.13;;
69502;SDS011;56704;54.242;12.442;2023-05-10T11:15:33;5.85;;;2.65;;
69502;SDS011;56704;54.242;12.442;2023-05-10T11:18:15;4.35;;;2.50;;
69502;SDS011;56704;54.242;12.442;2023-05-10T11:20:43;8.80;;;2.83;;
69502;SDS011;56704;54.242;12.442;2023-05-10T11:23:13;5.18;;;2.03;;
69502;SDS011;56704;54.242;12.442;2023-05-10T11:25:43;7.53;;;2.43;;
69502;SDS011;56704;54.242;12.442;2023-05-10T11:28:10;4.65;;;2.50;;
69502;SDS011;56704;54.242;12.442;2023-05-10T11:30:37;5.13;;;2.08;;
69502;SDS011;56704;54.242;12.442;2023-05-10T11:33:05;4.78;;;2.40;;
69502;SDS011;56704;54.242;12.442;2023-05-10T11:35:36;6.10;;;2.30;;
69502;SDS011;56704;54.242;12.442;2023-05-10T11:38:05;3.70;;;1.97;;
69502;SDS011;56704;54.242;12.442;2023-05-10T11:40:34;4.68;;;2.33;;
69502;SDS011;56704;54.242;12.442;2023-05-10T11:43:01;4.10;;;2.03;;
69502;SDS011;56704;54.242;12.442;2023-05-10T11:45:28;4.40;;;2.28;;
69502;SDS011;56704;54.242;12.442;2023-05-10T11:47:56;4.70;;;2.28;;
69502;SDS011;56704;54.242;12.442;2023-05-10T11:50:23;4.83;;;2.37;;
69502;SDS011;56704;54.242;12.442;2023-05-10T11:52:51;6.72;;;3.03;;
69502;SDS011;56704;54.242;12.442;2023-05-10T11:55:18;5.50;;;2.25;;
69502;SDS011;56704;54.242;12.442;2023-05-10T11:57:46;4.40;;;1.85;;
69502;SDS011;56704;54.242;12.442;2023-05-10T12:00:13;4.95;;;2.60;;
69502;SDS011;56704;54.242;12.442;2023-05-10T12:02:40;5.03;;;2.17;;
69502;SDS011;56704;54.242;12.442;2023-05-10T12:05:08;4.65;;;2.22;;
69502;SDS011;56704;54.242;12.442;2023-05-10T12:07:35;5.72;;;2.50;;
69502;SDS011;56704;54.242;12.442;2023-05-10T12:10:03;6.43;;;2.15;;
69502;SDS011;56704;54.242;12.442;2023-05-10T12:12:41;5.03;;;2.40;;
69502;SDS011;56704;54.242;12.442;2023-05-10T12:15:16;6.00;;;2.30;;
69502;SDS011;56704;54.242;12.442;2023-05-10T12:17:44;5.05;;;2.75;;
69502;SDS011;56704;54.242;12.442;2023-05-10T12:20:15;4.40;;;2.30;;
69502;SDS011;56704;54.242;12.442;2023-05-10T12:22:46;12.98;;;2.40;;
69502;SDS011;56704;54.242;12.442;2023-05-10T12:25:15;4.05;;;2.38;;
69502;SDS011;56704;54.242;12.442;2023-05-10T12:27:47;5.30;;;2.47;;
69502;SDS011;56704;54.242;12.442;2023-05-10T12:30:19;5.63;;;2.22;;
69502;SDS011;56704;54.242;12.442;2023-05-10T12:32:48;6.85;;;2.55;;
69502;SDS011;56704;54.242;12.442;2023-05-10T12:35:18;5.57;;;2.22;;
69502;SDS011;56704;54.242;12.442;2023-05-10T12:37:47;5.43;;;1.90;;
69502;SDS011;56704;54.242;12.442;2023-05-10T12:40:14;3.87;;;2.20;;
69502;SDS011;56704;54.242;12.442;2023-05-10T12:42:40;3.50;;;1.90;;
69502;SDS011;56704;54.242;12.442;2023-05-10T12:45:07;5.28;;;2.30;;
69502;SDS011;56704;54.242;12.442;2023-05-10T12:47:36;5.57;;;2.60;;
69502;SDS011;56704;54.242;12.442;2023-05-10T12:50:04;4.97;;;2.67;;
69502;SDS011;56704;54.242;12.442;2023-05-10T12:52:31;6.87;;;2.37;;
69502;SDS011;56704;54.242;12.442;2023-05-10T12:54:58;4.60;;;2.47;;
69502;SDS011;56704;54.242;12.442;2023-05-10T12:57:25;4.63;;;2.22;;
69502;SDS011;56704;54.242;12.442;2023-05-10T12:59:52;5.20;;;2.33;;
69502;SDS011;56704;54.242;12.442;2023-05-10T13:02:19;5.85;;;2.50;;
69502;SDS011;56704;54.242;12.442;2023-05-10T13:04:47;6.20;;;2.23;;
69502;SDS011;56704;54.242;12.442;2023-05-10T13:07:14;3.75;;;1.95;;
69502;SDS011;56704;54.242;12.442;2023-05-10T13:09:41;4.25;;;2.45;;
69502;SDS011;56704;54.242;12.442;2023-05-10T13:12:08;6.38;;;2.70;;
69502;SDS011;56704;54.242;12.442;2023-05-10T13:14:35;6.53;;;2.50;;
69502;SDS011;56704;54.242;12.442;2023-05-10T13:17:01;3.97;;;2.37;;
69502;SDS011;56704;54.242;12.442;2023-05-10T13:19:28;5.38;;;2.22;;
69502;SDS011;56704;54.242;12.442;2023-05-10T13:21:56;6.63;;;2.50;;
69502;SDS011;56704;54.242;12.442;2023-05-10T13:24:23;5.85;;;2.33;;
69502;SDS011;56704;54.242;12.442;2023-05-10T13:26:49;4.78;;;2.35;;
69502;SDS011;56704;54.242;12.442;2023-05-10T13:29:16;5.60;;;2.57;;
69502;SDS011;56704;54.242;12.442;2023-05-10T13:31:43;5.78;;;2.20;;
69502;SDS011;56704;54.242;12.442;2023-05-10T13:34:10;4.63;;;2.00;;
69502;SDS011;56704;54.242;12.442;2023-05-10T13:36:36;4.07;;;2.22;;
69502;SDS011;56704;54.242;12.442;2023-05-10T13:39:05;3.95;;;2.55;;
69502;SDS011;56704;54.242;12.442;2023-05-10T13:41:31;4.67;;;2.20;;
69502;SDS011;56704;54.242;12.442;2023-05-10T13:43:59;4.85;;;2.53;;
69502;SDS011;56704;54.242;12.442;2023-05-10T13:46:25;4.55;;;2.30;;
69502;SDS011;56704;54.242;12.442;2023-05-10T13:48:52;4.80;;;2.28;;
69502;SDS011;56704;54.242;12.442;2023-05-10T13:51:18;4.53;;;2.55;;
69502;SDS011;56704;54.242;12.442;2023-05-10T13:53:45;4.80;;;2.50;;
69502;SDS011;56704;54.242;12.442;2023-05-10T13:56:14;5.47;;;2.20;;
69502;SDS011;56704;54.242;12.442;2023-05-10T13:58:40;5.63;;;2.53;;
69502;SDS011;56704;54.242;12.442;2023-05-10T14:01:07;5.22;;;2.30;;
69502;SDS011;56704;54.242;12.442;2023-05-10T14:03:34;4.22;;;2.50;;
69502;SDS011;56704;54.242;12.442;2023-05-10T14:06:00;5.30;;;2.00;;
69502;SDS011;56704;54.242;12.442;2023-05-10T14:08:27;5.00;;;2.22;;
69502;SDS011;56704;54.242;12.442;2023-05-10T14:10:54;6.13;;;2.30;;
69502;SDS011;56704;54.242;12.442;2023-05-10T14:13:22;5.18;;;2.45;;
69502;SDS011;56704;54.242;12.442;2023-05-10T14:15:49;6.05;;;2.42;;
69502;SDS011;56704;54.242;12.442;2023-05-10T14:18:16;7.13;;;2.30;;
69502;SDS011;56704;54.242;12.442;2023-05-10T14:20:43;4.20;;;2.20;;
69502;SDS011;56704;54.242;12.442;2023-05-10T14:23:09;4.72;;;2.80;;
69502;SDS011;56704;54.242;12.442;2023-05-10T14:25:36;5.60;;;2.05;;
69502;SDS011;56704;54.242;12.442;2023-05-10T14:28:03;5.50;;;2.80;;
69502;SDS011;56704;54.242;12.442;2023-05-10T14:30:32;5.63;;;2.60;;
69502;SDS011;56704;54.242;12.442;2023-05-10T14:32:59;5.88;;;2.80;;
69502;SDS011;56704;54.242;12.442;2023-05-10T14:35:26;4.22;;;2.40;;
69502;SDS011;56704;54.242;12.442;2023-05-10T14:37:55;4.68;;;2.40;;
69502;SDS011;56704;54.242;12.442;2023-05-10T14:40:22;4.70;;;2.65;;
69502;SDS011;56704;54.242;12.442;2023-05-10T14:42:51;5.57;;;2.43;;
69502;SDS011;56704;54.242;12.442;2023-05-10T14:45:18;4.60;;;2.35;;
69502;SDS011;56704;54.242;12.442;2023-05-10T14:47:46;5.40;;;2.70;;